sensor_id;sensor_type;location;lat;lon;timestamp;P1;durP1;ratioP1;P2;durP2;ratioP2
75371;SDS011;63956;52.006;5.878;2023-01-26T00:00:20;49.40;;;15.40;;
75371;SDS011;63956;52.006;5.878;2023-01-26T00:02:50;53.38;;;17.42;;
75371;SDS011;63956;52.006;5.878;2023-01-26T00:05:19;52.08;;;16.60;;
75371;SDS011;63956;52.006;5.878;2023-01-26T00:07:48;52.38;;;16.75;;
75371;SDS011;63956;52.006;5.878;2023-01-26T00:10:17;54.92;;;18.65;;
75371;SDS011;63956;52.006;5.878;2023-01-26T00:12:49;52.65;;;16.27;;
75371;SDS011;63956;52.006;5.878;2023-01-26T00:15:18;50.78;;;16.63;;
75371;SDS011;63956;52.006;5.878;2023-01-26T00:17:47;51.50;;;17.73;;
75371;SDS011;63956;52.006;5.878;2023-01-26T00:20:17;28.23;;;9.77;;
75371;SDS011;63956;52.006;5.878;2023-01-26T00:22:46;49.17;;;17.70;;
75371;SDS011;63956;52.006;5.878;2023-01-26T00:25:15;51.50;;;16.40;;
75371;SDS011;63956;52.006;5.878;2023-01-26T00:27:45;50.67;;;17.20;;
75371;SDS011;63956;52.006;5.878;2023-01-26T00:30:17;57.67;;;18.02;;
75371;SDS011;63956;52.006;5.878;2023-01-26T00:32:47;52.08;;;16.90;;
75371;SDS011;63956;52.006;5.878;2023-01-26T00:35:16;54.42;;;15.98;;
75371;SDS011;63956;52.006;5.878;2023-01-26T00:37:45;56.42;;;17.40;;
75371;SDS011;63956;52.006;5.878;2023-01-26T00:40:14;55.90;;;16.85;;
75371;SDS011;63956;52.006;5.878;2023-01-26T00:42:44;56.80;;;17.63;;
75371;SDS011;63956;52.006;5.878;2023-01-26T00:45:13;56.05;;;18.65;;
75371;SDS011;63956;52.006;5.878;2023-01-26T00:47:46;41.63;;;12.98;;
75371;SDS011;63956;52.006;5.878;2023-01-26T00:50:16;45.97;;;16.08;;
75371;SDS011;63956;52.006;5.878;2023-01-26T00:52:45;51.78;;;16.50;;
75371;SDS011;63956;52.006;5.878;2023-01-26T00:55:15;56.13;;;17.38;;
75371;SDS011;63956;52.006;5.878;2023-01-26T01:00:13;52.95;;;17.63;;
75371;SDS011;63956;52.006;5.878;2023-01-26T01:02:47;54.33;;;17.15;;
75371;SDS011;63956;52.006;5.878;2023-01-26T01:05:17;54.58;;;17.58;;
75371;SDS011;63956;52.006;5.878;2023-01-26T01:07:46;52.38;;;16.67;;
75371;SDS011;63956;52.006;5.878;2023-01-26T01:10:15;56.95;;;18.45;;
75371;SDS011;63956;52.006;5.878;2023-01-26T01:12:44;45.25;;;15.48;;
75371;SDS011;63956;52.006;5.878;2023-01-26T01:15:14;52.60;;;18.42;;
75371;SDS011;63956;52.006;5.878;2023-01-26T01:17:43;49.03;;;17.38;;
75371;SDS011;63956;52.006;5.878;2023-01-26T01:20:15;40.85;;;13.60;;
75371;SDS011;63956;52.006;5.878;2023-01-26T01:22:45;44.00;;;15.73;;
75371;SDS011;63956;52.006;5.878;2023-01-26T01:25:14;32.53;;;10.88;;
75371;SDS011;63956;52.006;5.878;2023-01-26T01:27:44;44.88;;;16.63;;
75371;SDS011;63956;52.006;5.878;2023-01-26T01:30:13;44.40;;;14.25;;
75371;SDS011;63956;52.006;5.878;2023-01-26T01:32:42;39.10;;;14.55;;
75371;SDS011;63956;52.006;5.878;2023-01-26T01:35:18;42.70;;;13.77;;
75371;SDS011;63956;52.006;5.878;2023-01-26T01:37:48;46.00;;;14.98;;
75371;SDS011;63956;52.006;5.878;2023-01-26T01:40:17;46.15;;;15.57;;
75371;SDS011;63956;52.006;5.878;2023-01-26T01:42:46;52.90;;;15.95;;
75371;SDS011;63956;52.006;5.878;2023-01-26T01:48:09;44.08;;;14.25;;
75371;SDS011;63956;52.006;5.878;2023-01-26T01:50:45;44.05;;;14.15;;
75371;SDS011;63956;52.006;5.878;2023-01-26T01:53:19;46.80;;;15.35;;
75371;SDS011;63956;52.006;5.878;2023-01-26T01:55:55;41.08;;;13.02;;
75371;SDS011;63956;52.006;5.878;2023-01-26T01:58:27;40.03;;;14.02;;
75371;SDS011;63956;52.006;5.878;2023-01-26T02:00:59;43.63;;;13.65;;
75371;SDS011;63956;52.006;5.878;2023-01-26T02:03:29;38.67;;;13.32;;
75371;SDS011;63956;52.006;5.878;2023-01-26T02:06:02;31.88;;;12.00;;
75371;SDS011;63956;52.006;5.878;2023-01-26T02:08:37;31.70;;;11.35;;
75371;SDS011;63956;52.006;5.878;2023-01-26T02:11:12;34.65;;;11.45;;
75371;SDS011;63956;52.006;5.878;2023-01-26T02:13:45;42.17;;;13.38;;
75371;SDS011;63956;52.006;5.878;2023-01-26T02:16:16;39.63;;;13.45;;
75371;SDS011;63956;52.006;5.878;2023-01-26T02:18:46;37.58;;;13.70;;
75371;SDS011;63956;52.006;5.878;2023-01-26T02:23:50;29.50;;;9.38;;
75371;SDS011;63956;52.006;5.878;2023-01-26T02:26:37;35.70;;;11.85;;
75371;SDS011;63956;52.006;5.878;2023-01-26T02:29:07;40.45;;;14.45;;
75371;SDS011;63956;52.006;5.878;2023-01-26T02:31:42;42.65;;;14.07;;
75371;SDS011;63956;52.006;5.878;2023-01-26T02:34:12;38.25;;;12.70;;
75371;SDS011;63956;52.006;5.878;2023-01-26T02:36:41;38.33;;;12.18;;
75371;SDS011;63956;52.006;5.878;2023-01-26T02:39:15;39.40;;;12.25;;
75371;SDS011;63956;52.006;5.878;2023-01-26T02:41:52;31.75;;;10.05;;
75371;SDS011;63956;52.006;5.878;2023-01-26T02:44:34;38.05;;;12.32;;
75371;SDS011;63956;52.006;5.878;2023-01-26T02:47:09;36.38;;;11.13;;
75371;SDS011;63956;52.006;5.878;2023-01-26T02:49:40;37.08;;;12.40;;
75371;SDS011;63956;52.006;5.878;2023-01-26T02:52:18;34.28;;;10.98;;
75371;SDS011;63956;52.006;5.878;2023-01-26T02:55:00;31.30;;;10.95;;
75371;SDS011;63956;52.006;5.878;2023-01-26T02:57:45;35.28;;;12.05;;
75371;SDS011;63956;52.006;5.878;2023-01-26T03:00:15;36.38;;;12.25;;
75371;SDS011;63956;52.006;5.878;2023-01-26T03:02:47;36.47;;;11.55;;
75371;SDS011;63956;52.006;5.878;2023-01-26T03:05:18;40.15;;;13.65;;
75371;SDS011;63956;52.006;5.878;2023-01-26T03:07:47;30.95;;;10.35;;
75371;SDS011;63956;52.006;5.878;2023-01-26T03:10:18;36.75;;;11.50;;
75371;SDS011;63956;52.006;5.878;2023-01-26T03:12:53;36.50;;;11.57;;
75371;SDS011;63956;52.006;5.878;2023-01-26T03:15:22;35.10;;;11.10;;
75371;SDS011;63956;52.006;5.878;2023-01-26T03:18:14;31.08;;;10.40;;
75371;SDS011;63956;52.006;5.878;2023-01-26T03:20:57;31.27;;;10.50;;
75371;SDS011;63956;52.006;5.878;2023-01-26T03:23:39;35.10;;;11.90;;
75371;SDS011;63956;52.006;5.878;2023-01-26T03:26:22;28.42;;;10.52;;
75371;SDS011;63956;52.006;5.878;2023-01-26T03:31:37;20.10;;;7.35;;
75371;SDS011;63956;52.006;5.878;2023-01-26T03:34:06;26.95;;;9.75;;
75371;SDS011;63956;52.006;5.878;2023-01-26T03:36:35;24.05;;;8.18;;
75371;SDS011;63956;52.006;5.878;2023-01-26T03:39:09;25.02;;;8.63;;
75371;SDS011;63956;52.006;5.878;2023-01-26T03:41:59;20.25;;;7.38;;
75371;SDS011;63956;52.006;5.878;2023-01-26T03:47:25;23.45;;;7.28;;
75371;SDS011;63956;52.006;5.878;2023-01-26T03:50:07;25.60;;;9.48;;
75371;SDS011;63956;52.006;5.878;2023-01-26T03:52:50;21.98;;;7.60;;
75371;SDS011;63956;52.006;5.878;2023-01-26T03:55:32;14.85;;;5.15;;
75371;SDS011;63956;52.006;5.878;2023-01-26T03:58:13;18.55;;;6.20;;
75371;SDS011;63956;52.006;5.878;2023-01-26T04:00:45;20.50;;;7.95;;
75371;SDS011;63956;52.006;5.878;2023-01-26T04:03:16;21.00;;;7.45;;
75371;SDS011;63956;52.006;5.878;2023-01-26T04:05:58;16.80;;;6.50;;
75371;SDS011;63956;52.006;5.878;2023-01-26T04:11:09;14.95;;;5.00;;
75371;SDS011;63956;52.006;5.878;2023-01-26T04:13:38;18.05;;;6.32;;
75371;SDS011;63956;52.006;5.878;2023-01-26T04:16:29;17.27;;;5.53;;
75371;SDS011;63956;52.006;5.878;2023-01-26T04:19:10;25.23;;;8.95;;
75371;SDS011;63956;52.006;5.878;2023-01-26T04:24:21;15.50;;;5.45;;
75371;SDS011;63956;52.006;5.878;2023-01-26T04:26:54;18.35;;;6.30;;
75371;SDS011;63956;52.006;5.878;2023-01-26T04:29:27;20.40;;;7.95;;
75371;SDS011;63956;52.006;5.878;2023-01-26T04:31:59;23.60;;;8.38;;
75371;SDS011;63956;52.006;5.878;2023-01-26T04:34:28;12.63;;;4.78;;
75371;SDS011;63956;52.006;5.878;2023-01-26T04:36:58;18.65;;;7.40;;
75371;SDS011;63956;52.006;5.878;2023-01-26T04:39:36;21.85;;;8.02;;
75371;SDS011;63956;52.006;5.878;2023-01-26T04:42:06;24.27;;;8.93;;
75371;SDS011;63956;52.006;5.878;2023-01-26T04:44:35;12.82;;;4.90;;
75371;SDS011;63956;52.006;5.878;2023-01-26T04:47:07;18.58;;;7.15;;
75371;SDS011;63956;52.006;5.878;2023-01-26T04:49:37;13.88;;;5.18;;
75371;SDS011;63956;52.006;5.878;2023-01-26T04:52:06;19.42;;;8.40;;
75371;SDS011;63956;52.006;5.878;2023-01-26T04:57:05;11.32;;;3.83;;
75371;SDS011;63956;52.006;5.878;2023-01-26T04:59:37;18.58;;;7.10;;
75371;SDS011;63956;52.006;5.878;2023-01-26T05:04:38;21.73;;;7.10;;
75371;SDS011;63956;52.006;5.878;2023-01-26T05:07:07;20.58;;;8.38;;
75371;SDS011;63956;52.006;5.878;2023-01-26T05:09:37;16.88;;;5.95;;
75371;SDS011;63956;52.006;5.878;2023-01-26T05:12:25;17.55;;;6.47;;
75371;SDS011;63956;52.006;5.878;2023-01-26T05:18:13;27.58;;;7.82;;
75371;SDS011;63956;52.006;5.878;2023-01-26T05:20:46;21.10;;;7.20;;
75371;SDS011;63956;52.006;5.878;2023-01-26T05:23:17;12.07;;;4.35;;
75371;SDS011;63956;52.006;5.878;2023-01-26T05:26:05;12.55;;;4.47;;
75371;SDS011;63956;52.006;5.878;2023-01-26T05:28:47;21.92;;;8.20;;
75371;SDS011;63956;52.006;5.878;2023-01-26T05:31:16;18.55;;;6.50;;
75371;SDS011;63956;52.006;5.878;2023-01-26T05:33:49;22.42;;;7.72;;
75371;SDS011;63956;52.006;5.878;2023-01-26T05:36:21;9.88;;;3.90;;
75371;SDS011;63956;52.006;5.878;2023-01-26T05:38:51;10.82;;;3.97;;
75371;SDS011;63956;52.006;5.878;2023-01-26T05:41:23;17.80;;;6.22;;
75371;SDS011;63956;52.006;5.878;2023-01-26T05:44:11;19.63;;;7.20;;
75371;SDS011;63956;52.006;5.878;2023-01-26T05:46:44;23.58;;;7.72;;
75371;SDS011;63956;52.006;5.878;2023-01-26T05:49:15;16.75;;;5.53;;
75371;SDS011;63956;52.006;5.878;2023-01-26T05:51:45;16.52;;;5.95;;
75371;SDS011;63956;52.006;5.878;2023-01-26T05:54:14;17.00;;;6.03;;
75371;SDS011;63956;52.006;5.878;2023-01-26T05:56:43;19.05;;;6.97;;
75371;SDS011;63956;52.006;5.878;2023-01-26T05:59:13;23.20;;;9.00;;
75371;SDS011;63956;52.006;5.878;2023-01-26T06:01:43;20.42;;;7.78;;
75371;SDS011;63956;52.006;5.878;2023-01-26T06:04:12;19.98;;;8.35;;
75371;SDS011;63956;52.006;5.878;2023-01-26T06:06:50;23.33;;;8.13;;
75371;SDS011;63956;52.006;5.878;2023-01-26T06:09:27;18.50;;;6.40;;
75371;SDS011;63956;52.006;5.878;2023-01-26T06:12:11;21.15;;;8.45;;
75371;SDS011;63956;52.006;5.878;2023-01-26T06:14:58;20.83;;;7.22;;
75371;SDS011;63956;52.006;5.878;2023-01-26T06:17:42;18.05;;;6.68;;
75371;SDS011;63956;52.006;5.878;2023-01-26T06:20:13;18.25;;;7.32;;
75371;SDS011;63956;52.006;5.878;2023-01-26T06:22:54;15.93;;;6.57;;
75371;SDS011;63956;52.006;5.878;2023-01-26T06:25:28;14.45;;;5.88;;
75371;SDS011;63956;52.006;5.878;2023-01-26T06:27:57;18.80;;;6.38;;
75371;SDS011;63956;52.006;5.878;2023-01-26T06:30:28;17.30;;;6.55;;
75371;SDS011;63956;52.006;5.878;2023-01-26T06:33:01;19.55;;;6.80;;
75371;SDS011;63956;52.006;5.878;2023-01-26T06:35:34;14.60;;;6.75;;
75371;SDS011;63956;52.006;5.878;2023-01-26T06:38:11;15.45;;;5.25;;
75371;SDS011;63956;52.006;5.878;2023-01-26T06:40:40;19.48;;;7.38;;
75371;SDS011;63956;52.006;5.878;2023-01-26T06:43:09;10.82;;;4.15;;
75371;SDS011;63956;52.006;5.878;2023-01-26T06:45:39;16.58;;;5.75;;
75371;SDS011;63956;52.006;5.878;2023-01-26T06:48:09;8.80;;;3.33;;
75371;SDS011;63956;52.006;5.878;2023-01-26T06:50:38;22.70;;;8.52;;
75371;SDS011;63956;52.006;5.878;2023-01-26T06:53:24;24.70;;;8.80;;
75371;SDS011;63956;52.006;5.878;2023-01-26T06:56:14;20.67;;;7.68;;
75371;SDS011;63956;52.006;5.878;2023-01-26T06:58:55;16.60;;;5.55;;
75371;SDS011;63956;52.006;5.878;2023-01-26T07:01:36;12.15;;;3.83;;
75371;SDS011;63956;52.006;5.878;2023-01-26T07:04:06;21.75;;;8.15;;
75371;SDS011;63956;52.006;5.878;2023-01-26T07:09:07;11.85;;;4.40;;
75371;SDS011;63956;52.006;5.878;2023-01-26T07:11:36;14.43;;;5.88;;
75371;SDS011;63956;52.006;5.878;2023-01-26T07:14:05;15.80;;;6.03;;
75371;SDS011;63956;52.006;5.878;2023-01-26T07:16:34;16.35;;;6.28;;
75371;SDS011;63956;52.006;5.878;2023-01-26T07:19:03;19.10;;;7.10;;
75371;SDS011;63956;52.006;5.878;2023-01-26T07:21:33;17.00;;;6.30;;
75371;SDS011;63956;52.006;5.878;2023-01-26T07:24:04;6.97;;;2.50;;
75371;SDS011;63956;52.006;5.878;2023-01-26T07:26:36;9.25;;;3.90;;
75371;SDS011;63956;52.006;5.878;2023-01-26T07:29:05;17.05;;;6.40;;
75371;SDS011;63956;52.006;5.878;2023-01-26T07:31:34;20.23;;;6.22;;
75371;SDS011;63956;52.006;5.878;2023-01-26T07:34:03;15.40;;;5.85;;
75371;SDS011;63956;52.006;5.878;2023-01-26T07:36:32;11.40;;;3.45;;
75371;SDS011;63956;52.006;5.878;2023-01-26T07:39:01;9.05;;;3.00;;
75371;SDS011;63956;52.006;5.878;2023-01-26T07:41:33;13.20;;;5.28;;
75371;SDS011;63956;52.006;5.878;2023-01-26T07:44:22;16.08;;;6.05;;
75371;SDS011;63956;52.006;5.878;2023-01-26T07:46:51;21.85;;;7.93;;
75371;SDS011;63956;52.006;5.878;2023-01-26T07:49:20;23.80;;;8.32;;
75371;SDS011;63956;52.006;5.878;2023-01-26T07:51:49;12.88;;;5.03;;
75371;SDS011;63956;52.006;5.878;2023-01-26T07:54:19;9.20;;;4.55;;
75371;SDS011;63956;52.006;5.878;2023-01-26T07:56:52;9.55;;;3.05;;
75371;SDS011;63956;52.006;5.878;2023-01-26T07:59:22;17.95;;;6.80;;
75371;SDS011;63956;52.006;5.878;2023-01-26T08:01:51;18.48;;;7.15;;
75371;SDS011;63956;52.006;5.878;2023-01-26T08:04:20;16.88;;;6.13;;
75371;SDS011;63956;52.006;5.878;2023-01-26T08:06:49;13.68;;;4.82;;
75371;SDS011;63956;52.006;5.878;2023-01-26T08:09:19;19.17;;;7.07;;
75371;SDS011;63956;52.006;5.878;2023-01-26T08:11:48;19.67;;;7.32;;
75371;SDS011;63956;52.006;5.878;2023-01-26T08:14:20;22.98;;;7.00;;
75371;SDS011;63956;52.006;5.878;2023-01-26T08:16:49;21.63;;;6.75;;
75371;SDS011;63956;52.006;5.878;2023-01-26T08:19:18;9.93;;;3.13;;
75371;SDS011;63956;52.006;5.878;2023-01-26T08:21:47;19.80;;;6.65;;
75371;SDS011;63956;52.006;5.878;2023-01-26T08:24:17;13.90;;;5.57;;
75371;SDS011;63956;52.006;5.878;2023-01-26T08:26:46;18.27;;;6.68;;
75371;SDS011;63956;52.006;5.878;2023-01-26T08:29:16;17.38;;;5.88;;
75371;SDS011;63956;52.006;5.878;2023-01-26T08:31:48;19.70;;;6.60;;
75371;SDS011;63956;52.006;5.878;2023-01-26T08:34:18;12.88;;;4.22;;
75371;SDS011;63956;52.006;5.878;2023-01-26T08:36:47;21.67;;;6.20;;
75371;SDS011;63956;52.006;5.878;2023-01-26T08:39:16;23.75;;;8.13;;
75371;SDS011;63956;52.006;5.878;2023-01-26T08:41:46;22.13;;;6.93;;
75371;SDS011;63956;52.006;5.878;2023-01-26T08:44:15;12.20;;;4.85;;
75371;SDS011;63956;52.006;5.878;2023-01-26T08:46:44;25.88;;;7.85;;
75371;SDS011;63956;52.006;5.878;2023-01-26T08:49:16;16.90;;;5.20;;
75371;SDS011;63956;52.006;5.878;2023-01-26T08:51:45;12.45;;;4.55;;
75371;SDS011;63956;52.006;5.878;2023-01-26T08:54:14;16.02;;;5.80;;
75371;SDS011;63956;52.006;5.878;2023-01-26T08:56:43;14.77;;;5.47;;
75371;SDS011;63956;52.006;5.878;2023-01-26T08:59:12;15.30;;;5.20;;
75371;SDS011;63956;52.006;5.878;2023-01-26T09:01:41;22.35;;;7.40;;
75371;SDS011;63956;52.006;5.878;2023-01-26T09:04:10;30.48;;;8.15;;
75371;SDS011;63956;52.006;5.878;2023-01-26T09:06:42;19.30;;;6.45;;
75371;SDS011;63956;52.006;5.878;2023-01-26T09:09:11;19.92;;;6.75;;
75371;SDS011;63956;52.006;5.878;2023-01-26T09:11:41;36.72;;;8.10;;
75371;SDS011;63956;52.006;5.878;2023-01-26T09:14:10;25.05;;;9.18;;
75371;SDS011;63956;52.006;5.878;2023-01-26T09:16:40;11.95;;;4.82;;
75371;SDS011;63956;52.006;5.878;2023-01-26T09:19:09;28.25;;;7.47;;
75371;SDS011;63956;52.006;5.878;2023-01-26T09:21:38;22.48;;;7.07;;
75371;SDS011;63956;52.006;5.878;2023-01-26T09:24:10;20.50;;;6.38;;
75371;SDS011;63956;52.006;5.878;2023-01-26T09:26:39;11.27;;;4.10;;
75371;SDS011;63956;52.006;5.878;2023-01-26T09:29:08;21.80;;;7.82;;
75371;SDS011;63956;52.006;5.878;2023-01-26T09:31:37;20.30;;;6.78;;
75371;SDS011;63956;52.006;5.878;2023-01-26T09:34:06;11.65;;;4.03;;
75371;SDS011;63956;52.006;5.878;2023-01-26T09:39:04;18.77;;;6.15;;
75371;SDS011;63956;52.006;5.878;2023-01-26T09:41:41;20.63;;;5.75;;
75371;SDS011;63956;52.006;5.878;2023-01-26T09:44:18;19.48;;;5.78;;
75371;SDS011;63956;52.006;5.878;2023-01-26T09:46:56;20.50;;;6.82;;
75371;SDS011;63956;52.006;5.878;2023-01-26T09:49:39;25.58;;;6.90;;
75371;SDS011;63956;52.006;5.878;2023-01-26T09:52:15;23.02;;;6.88;;
75371;SDS011;63956;52.006;5.878;2023-01-26T09:54:51;19.70;;;6.20;;
75371;SDS011;63956;52.006;5.878;2023-01-26T09:57:26;32.38;;;7.43;;
75371;SDS011;63956;52.006;5.878;2023-01-26T10:00:02;44.05;;;8.75;;
75371;SDS011;63956;52.006;5.878;2023-01-26T10:02:43;15.15;;;5.30;;
75371;SDS011;63956;52.006;5.878;2023-01-26T10:05:21;26.98;;;8.43;;
75371;SDS011;63956;52.006;5.878;2023-01-26T10:08:07;30.30;;;7.80;;
75371;SDS011;63956;52.006;5.878;2023-01-26T10:10:40;24.90;;;8.90;;
75371;SDS011;63956;52.006;5.878;2023-01-26T10:13:15;21.77;;;5.75;;
75371;SDS011;63956;52.006;5.878;2023-01-26T10:15:46;20.08;;;7.00;;
75371;SDS011;63956;52.006;5.878;2023-01-26T10:18:17;18.92;;;5.40;;
75371;SDS011;63956;52.006;5.878;2023-01-26T10:20:52;33.78;;;7.68;;
75371;SDS011;63956;52.006;5.878;2023-01-26T10:23:23;34.17;;;8.60;;
75371;SDS011;63956;52.006;5.878;2023-01-26T10:25:57;25.63;;;8.82;;
75371;SDS011;63956;52.006;5.878;2023-01-26T10:28:37;20.77;;;7.65;;
75371;SDS011;63956;52.006;5.878;2023-01-26T10:31:09;17.65;;;6.40;;
75371;SDS011;63956;52.006;5.878;2023-01-26T10:33:42;63.92;;;8.02;;
75371;SDS011;63956;52.006;5.878;2023-01-26T10:36:18;16.17;;;5.18;;
75371;SDS011;63956;52.006;5.878;2023-01-26T10:41:24;16.10;;;6.05;;
75371;SDS011;63956;52.006;5.878;2023-01-26T10:43:57;17.83;;;5.32;;
75371;SDS011;63956;52.006;5.878;2023-01-26T10:46:30;22.17;;;5.25;;
75371;SDS011;63956;52.006;5.878;2023-01-26T10:49:02;13.18;;;3.83;;
75371;SDS011;63956;52.006;5.878;2023-01-26T10:51:43;25.23;;;5.88;;
75371;SDS011;63956;52.006;5.878;2023-01-26T10:54:22;17.38;;;3.95;;
75371;SDS011;63956;52.006;5.878;2023-01-26T10:56:54;13.10;;;4.53;;
75371;SDS011;63956;52.006;5.878;2023-01-26T10:59:29;19.80;;;5.85;;
75371;SDS011;63956;52.006;5.878;2023-01-26T11:02:01;12.85;;;4.60;;
75371;SDS011;63956;52.006;5.878;2023-01-26T11:04:59;18.75;;;5.65;;
75371;SDS011;63956;52.006;5.878;2023-01-26T11:07:32;48.90;;;6.00;;
75371;SDS011;63956;52.006;5.878;2023-01-26T11:10:20;23.48;;;6.53;;
75371;SDS011;63956;52.006;5.878;2023-01-26T11:13:05;12.85;;;3.25;;
75371;SDS011;63956;52.006;5.878;2023-01-26T11:15:39;21.10;;;5.25;;
75371;SDS011;63956;52.006;5.878;2023-01-26T11:18:12;11.07;;;3.13;;
75371;SDS011;63956;52.006;5.878;2023-01-26T11:20:56;47.70;;;5.60;;
75371;SDS011;63956;52.006;5.878;2023-01-26T11:23:33;18.23;;;4.55;;
75371;SDS011;63956;52.006;5.878;2023-01-26T11:26:14;9.85;;;3.47;;
75371;SDS011;63956;52.006;5.878;2023-01-26T11:28:57;17.98;;;4.32;;
75371;SDS011;63956;52.006;5.878;2023-01-26T11:31:43;8.90;;;2.90;;
75371;SDS011;63956;52.006;5.878;2023-01-26T11:34:23;12.32;;;4.10;;
75371;SDS011;63956;52.006;5.878;2023-01-26T11:37:05;13.10;;;2.80;;
75371;SDS011;63956;52.006;5.878;2023-01-26T11:39:55;20.58;;;4.13;;
75371;SDS011;63956;52.006;5.878;2023-01-26T11:42:30;10.40;;;3.25;;
75371;SDS011;63956;52.006;5.878;2023-01-26T11:45:13;8.52;;;2.85;;
75371;SDS011;63956;52.006;5.878;2023-01-26T11:47:53;5.68;;;2.10;;
75371;SDS011;63956;52.006;5.878;2023-01-26T11:50:34;11.27;;;2.97;;
75371;SDS011;63956;52.006;5.878;2023-01-26T11:53:14;12.63;;;4.32;;
75371;SDS011;63956;52.006;5.878;2023-01-26T11:55:55;12.23;;;3.13;;
75371;SDS011;63956;52.006;5.878;2023-01-26T11:58:33;16.55;;;4.32;;
75371;SDS011;63956;52.006;5.878;2023-01-26T12:01:07;14.40;;;3.65;;
75371;SDS011;63956;52.006;5.878;2023-01-26T12:06:15;17.98;;;4.75;;
75371;SDS011;63956;52.006;5.878;2023-01-26T12:08:47;12.43;;;3.42;;
75371;SDS011;63956;52.006;5.878;2023-01-26T12:11:21;11.98;;;3.78;;
75371;SDS011;63956;52.006;5.878;2023-01-26T12:14:04;15.10;;;3.13;;
75371;SDS011;63956;52.006;5.878;2023-01-26T12:19:21;12.27;;;3.28;;
75371;SDS011;63956;52.006;5.878;2023-01-26T12:22:01;18.35;;;3.65;;
75371;SDS011;63956;52.006;5.878;2023-01-26T12:24:39;12.45;;;3.28;;
75371;SDS011;63956;52.006;5.878;2023-01-26T12:27:13;17.77;;;3.28;;
75371;SDS011;63956;52.006;5.878;2023-01-26T12:29:48;15.43;;;2.95;;
75371;SDS011;63956;52.006;5.878;2023-01-26T12:32:20;12.75;;;2.30;;
75371;SDS011;63956;52.006;5.878;2023-01-26T12:34:53;12.95;;;2.45;;
75371;SDS011;63956;52.006;5.878;2023-01-26T12:37:29;16.40;;;2.72;;
75371;SDS011;63956;52.006;5.878;2023-01-26T12:40:13;39.40;;;4.07;;
